createdAt,value
2018-08-04T00:00:14.642Z,3.97
2018-08-04T00:02:42.847Z,3.27
2018-08-04T00:05:11.431Z,3.57
2018-08-04T00:07:40.038Z,3.60
2018-08-04T00:10:15.011Z,3.30
2018-08-04T00:12:43.236Z,3.60
2018-08-04T00:15:11.449Z,4.10
2018-08-04T00:17:39.667Z,3.73
2018-08-04T00:20:07.879Z,3.97
2018-08-04T00:22:36.098Z,3.97
2018-08-04T00:25:04.543Z,3.60
2018-08-04T00:27:32.768Z,3.60
2018-08-04T00:30:01.028Z,3.70
2018-08-04T00:32:29.247Z,4.00
2018-08-04T00:34:57.443Z,4.00
2018-08-04T00:37:25.432Z,3.97
2018-08-04T00:39:53.646Z,3.90
2018-08-04T00:42:21.862Z,4.40
2018-08-04T00:44:50.085Z,3.97
2018-08-04T00:47:18.294Z,3.70
2018-08-04T00:49:46.566Z,3.50
2018-08-04T00:52:14.764Z,4.27
2018-08-04T00:54:42.975Z,4.20
2018-08-04T00:57:11.198Z,4.10
2018-08-04T00:59:39.423Z,4.03
2018-08-04T01:02:07.636Z,4.17
2018-08-04T01:04:35.855Z,3.97
2018-08-04T01:07:04.062Z,3.90
2018-08-04T01:09:32.298Z,4.20
2018-08-04T01:12:00.492Z,3.90
2018-08-04T01:14:28.697Z,4.30
2018-08-04T01:16:56.889Z,4.70
2018-08-04T01:19:25.146Z,5.10
2018-08-04T01:21:53.372Z,4.10
2018-08-04T01:24:21.586Z,4.33
2018-08-04T01:26:49.791Z,4.37
2018-08-04T01:29:18.011Z,4.10
2018-08-04T01:31:46.219Z,4.07
2018-08-04T01:34:14.435Z,4.37
2018-08-04T01:36:42.634Z,4.07
2018-08-04T01:39:11.515Z,4.00
2018-08-04T01:41:39.923Z,4.00
2018-08-04T01:44:08.146Z,4.00
2018-08-04T01:46:36.351Z,3.87
2018-08-04T01:49:04.575Z,3.70
2018-08-04T01:51:32.774Z,3.73
2018-08-04T01:54:01.036Z,3.60
2018-08-04T01:56:29.243Z,4.20
2018-08-04T01:58:57.451Z,4.40
2018-08-04T02:01:25.655Z,4.03
2018-08-04T02:03:54.037Z,3.50
2018-08-04T02:06:22.232Z,3.80
2018-08-04T02:08:50.459Z,4.00
2018-08-04T02:11:18.675Z,4.70
2018-08-04T02:13:46.923Z,4.60
2018-08-04T02:16:15.127Z,4.20
2018-08-04T02:18:43.334Z,4.33
2018-08-04T02:21:11.550Z,4.30
2018-08-04T02:23:39.791Z,4.40
2018-08-04T02:26:08.001Z,4.23
2018-08-04T02:28:36.243Z,3.80
2018-08-04T02:31:04.467Z,4.30
2018-08-04T02:33:32.670Z,3.90
2018-08-04T02:36:00.889Z,3.63
2018-08-04T02:38:29.095Z,4.10
2018-08-04T02:40:57.336Z,3.67
2018-08-04T02:43:25.532Z,3.70
2018-08-04T02:45:53.761Z,4.13
2018-08-04T02:48:21.723Z,4.13
2018-08-04T02:50:49.962Z,3.77
2018-08-04T02:53:18.156Z,4.00
2018-08-04T02:55:46.380Z,4.00
2018-08-04T02:58:14.579Z,4.03
2018-08-04T03:00:42.796Z,4.70
2018-08-04T03:03:10.762Z,4.13
2018-08-04T03:05:38.994Z,4.40
2018-08-04T03:08:07.216Z,4.30
2018-08-04T03:10:35.442Z,4.33
2018-08-04T03:13:03.651Z,3.90
2018-08-04T03:15:31.856Z,4.27
2018-08-04T03:18:00.056Z,4.17
2018-08-04T03:20:28.274Z,4.70
2018-08-04T03:22:56.298Z,4.37
2018-08-04T03:25:24.535Z,4.43
2018-08-04T03:27:52.738Z,3.80
2018-08-04T03:30:22.505Z,4.03
2018-08-04T03:32:50.710Z,4.30
2018-08-04T03:35:18.960Z,4.43
2018-08-04T03:37:47.160Z,4.23
2018-08-04T03:40:15.390Z,4.37
2018-08-04T03:42:43.603Z,4.13
2018-08-04T03:45:11.834Z,4.10
2018-08-04T03:47:40.050Z,3.90
2018-08-04T03:50:08.264Z,4.17
2018-08-04T03:52:36.474Z,4.20
2018-08-04T03:55:04.706Z,4.47
2018-08-04T03:57:32.915Z,4.10
2018-08-04T04:00:01.140Z,4.30
2018-08-04T04:02:29.354Z,4.10
2018-08-04T04:04:57.589Z,4.27
2018-08-04T04:07:25.803Z,4.27
2018-08-04T04:09:54.039Z,4.10
2018-08-04T04:12:22.238Z,4.17
2018-08-04T04:14:50.479Z,4.07
2018-08-04T04:17:18.698Z,4.17
2018-08-04T04:19:46.906Z,4.17
2018-08-04T04:22:15.127Z,4.40
2018-08-04T04:24:43.339Z,4.73
2018-08-04T04:27:11.343Z,5.23
2018-08-04T04:29:39.698Z,4.60
2018-08-04T04:32:08.348Z,5.37
2018-08-04T04:34:36.547Z,4.50
2018-08-04T04:37:04.851Z,4.20
2018-08-04T04:39:33.065Z,4.87
2018-08-04T04:42:01.303Z,4.50
2018-08-04T04:44:29.500Z,5.07
2018-08-04T04:46:57.710Z,5.17
2018-08-04T04:49:25.670Z,4.93
2018-08-04T04:51:53.874Z,4.50
2018-08-04T04:54:22.084Z,4.87
2018-08-04T04:56:50.290Z,4.50
2018-08-04T04:59:18.467Z,4.50
2018-08-04T05:01:46.449Z,4.80
2018-08-04T05:04:14.675Z,5.13
2018-08-04T05:06:42.910Z,4.50
2018-08-04T05:09:11.111Z,4.80
2018-08-04T05:11:39.422Z,4.40
2018-08-04T05:14:08.490Z,4.57
2018-08-04T05:16:36.716Z,4.70
2018-08-04T05:19:04.951Z,4.30
2018-08-04T05:21:33.224Z,4.40
2018-08-04T05:24:01.395Z,4.17
2018-08-04T05:26:29.615Z,4.30
2018-08-04T05:28:57.850Z,3.70
2018-08-04T05:31:26.075Z,4.30
2018-08-04T05:33:54.400Z,4.40
2018-08-04T05:36:23.003Z,4.23
2018-08-04T05:38:51.212Z,3.87
2018-08-04T05:41:19.476Z,3.83
2018-08-04T05:43:47.703Z,3.70
2018-08-04T05:46:15.922Z,3.90
2018-08-04T05:48:44.150Z,3.10
2018-08-04T05:51:12.379Z,3.67
2018-08-04T05:53:40.582Z,3.53
2018-08-04T05:56:08.812Z,3.70
2018-08-04T05:58:37.023Z,3.80
2018-08-04T06:01:05.257Z,3.63
2018-08-04T06:03:33.459Z,3.40
2018-08-04T06:06:01.670Z,3.90
2018-08-04T06:08:29.881Z,3.47
2018-08-04T06:10:58.160Z,3.50
2018-08-04T06:13:26.371Z,3.40
2018-08-04T06:15:54.574Z,4.00
2018-08-04T06:18:22.803Z,3.60
2018-08-04T06:20:51.027Z,3.90
2018-08-04T06:23:19.246Z,3.70
2018-08-04T06:25:47.457Z,3.10
2018-08-04T06:28:15.837Z,3.53
2018-08-04T06:30:44.072Z,3.90
2018-08-04T06:33:12.295Z,3.30
2018-08-04T06:35:40.524Z,3.23
2018-08-04T06:38:08.750Z,3.00
2018-08-04T06:40:36.947Z,3.47
2018-08-04T06:43:05.249Z,3.27
2018-08-04T06:45:33.457Z,3.47
2018-08-04T06:48:01.687Z,3.10
2018-08-04T06:50:29.915Z,3.10
2018-08-04T06:52:58.139Z,3.37
2018-08-04T06:55:26.339Z,3.37
2018-08-04T06:57:54.558Z,3.40
2018-08-04T07:00:22.787Z,3.30
2018-08-04T07:02:51.018Z,3.17
2018-08-04T07:05:19.222Z,2.50
2018-08-04T07:07:47.949Z,3.10
2018-08-04T07:10:16.256Z,2.90
2018-08-04T07:12:44.551Z,2.67
2018-08-04T07:15:12.773Z,3.40
2018-08-04T07:17:41.006Z,3.37
2018-08-04T07:20:09.235Z,2.90
2018-08-04T07:22:37.224Z,2.65
2018-08-04T07:25:05.466Z,2.58
2018-08-04T07:27:33.689Z,2.47
2018-08-04T07:30:01.895Z,2.72
2018-08-04T07:32:30.114Z,2.72
2018-08-04T07:34:58.362Z,2.58
2018-08-04T07:37:26.659Z,2.22
2018-08-04T07:39:54.908Z,2.22
2018-08-04T07:42:23.216Z,2.35
2018-08-04T07:44:51.515Z,2.20
2018-08-04T07:47:19.731Z,2.22
2018-08-04T07:49:47.993Z,2.10
2018-08-04T07:52:16.223Z,2.22
2018-08-04T07:54:44.454Z,2.40
2018-08-04T07:57:12.704Z,2.42
2018-08-04T07:59:40.924Z,2.20
2018-08-04T08:02:09.156Z,1.90
2018-08-04T08:04:37.392Z,2.20
2018-08-04T08:07:05.622Z,2.87
2018-08-04T08:09:33.864Z,2.20
2018-08-04T08:12:02.062Z,2.52
2018-08-04T08:14:30.305Z,2.70
2018-08-04T08:16:58.526Z,2.50
2018-08-04T08:19:26.772Z,2.37
2018-08-04T08:21:54.974Z,2.15
2018-08-04T08:24:23.202Z,2.72
2018-08-04T08:26:51.443Z,2.70
2018-08-04T08:29:19.689Z,2.20
2018-08-04T08:31:47.893Z,2.45
2018-08-04T08:34:16.123Z,2.35
2018-08-04T08:36:44.350Z,2.20
2018-08-04T08:39:12.615Z,2.37
2018-08-04T08:41:40.815Z,2.52
2018-08-04T08:44:09.067Z,2.60
2018-08-04T08:46:37.283Z,2.50
2018-08-04T08:49:05.575Z,2.58
2018-08-04T08:51:33.806Z,2.27
2018-08-04T08:54:02.155Z,2.50
2018-08-04T08:56:30.266Z,2.20
2018-08-04T08:58:58.518Z,2.60
2018-08-04T09:01:26.828Z,2.50
2018-08-04T09:03:54.991Z,2.72
2018-08-04T09:06:23.205Z,2.60
2018-08-04T09:08:51.450Z,2.40
2018-08-04T09:11:19.671Z,2.40
2018-08-04T09:13:47.883Z,2.83
2018-08-04T09:16:16.109Z,2.50
2018-08-04T09:18:44.342Z,2.60
2018-08-04T09:21:12.558Z,2.45
2018-08-04T09:23:40.792Z,2.70
2018-08-04T09:26:09.053Z,2.58
2018-08-04T09:28:37.299Z,3.00
2018-08-04T09:31:05.522Z,2.70
2018-08-04T09:33:34.541Z,2.77
2018-08-04T09:36:02.534Z,2.77
2018-08-04T09:38:30.749Z,2.52
2018-08-04T09:40:58.956Z,2.75
2018-08-04T09:43:27.163Z,2.60
2018-08-04T09:45:55.387Z,2.75
2018-08-04T09:48:23.618Z,2.80
2018-08-04T09:50:51.843Z,2.90
2018-08-04T09:53:20.063Z,2.67
2018-08-04T09:55:48.274Z,3.02
2018-08-04T09:58:20.127Z,2.80
2018-08-04T10:00:53.566Z,3.55
2018-08-04T10:03:21.766Z,2.67
2018-08-04T10:05:49.982Z,3.00
2018-08-04T10:08:18.192Z,3.10
2018-08-04T10:10:46.455Z,2.90
2018-08-04T10:13:14.663Z,2.92
2018-08-04T10:15:42.896Z,3.08
2018-08-04T10:18:11.135Z,3.15
2018-08-04T10:20:39.354Z,3.05
2018-08-04T10:23:07.566Z,3.08
2018-08-04T10:25:35.802Z,3.20
2018-08-04T10:28:04.036Z,3.20
2018-08-04T10:30:32.281Z,2.80
2018-08-04T10:33:00.475Z,2.72
2018-08-04T10:35:28.694Z,2.70
2018-08-04T10:37:56.900Z,3.25
2018-08-04T10:40:25.119Z,2.75
2018-08-04T10:42:53.316Z,2.80
2018-08-04T10:45:21.557Z,2.80
2018-08-04T10:47:49.776Z,2.80
2018-08-04T10:50:17.988Z,3.30
2018-08-04T10:52:46.183Z,2.87
2018-08-04T10:55:14.412Z,2.80
2018-08-04T10:57:42.405Z,2.77
2018-08-04T11:00:10.748Z,2.92
2018-08-04T11:02:39.008Z,2.60
2018-08-04T11:05:07.696Z,2.72
2018-08-04T11:07:35.932Z,2.50
2018-08-04T11:10:04.815Z,2.58
2018-08-04T11:12:33.066Z,4.20
2018-08-04T11:15:01.060Z,2.70
2018-08-04T11:17:29.267Z,2.83
2018-08-04T11:19:57.587Z,3.02
2018-08-04T11:22:25.807Z,2.72
2018-08-04T11:24:54.034Z,2.90
2018-08-04T11:27:22.241Z,2.60
2018-08-04T11:29:50.495Z,3.20
2018-08-04T11:32:18.702Z,3.00
2018-08-04T11:34:46.928Z,2.90
2018-08-04T11:37:15.135Z,2.85
2018-08-04T11:39:43.366Z,3.10
2018-08-04T11:42:11.348Z,2.90
2018-08-04T11:44:39.606Z,3.10
2018-08-04T11:47:07.819Z,3.20
2018-08-04T11:49:36.032Z,3.00
2018-08-04T11:52:04.276Z,3.22
2018-08-04T11:54:32.483Z,3.25
2018-08-04T11:57:00.706Z,3.00
2018-08-04T11:59:28.927Z,3.00
2018-08-04T12:01:57.182Z,3.00
2018-08-04T12:04:25.411Z,3.27
2018-08-04T12:06:53.643Z,3.08
2018-08-04T12:09:21.871Z,2.90
2018-08-04T12:11:50.109Z,3.05
2018-08-04T12:14:18.084Z,2.95
2018-08-04T12:16:46.310Z,3.10
2018-08-04T12:19:14.512Z,3.10
2018-08-04T12:21:42.744Z,2.92
2018-08-04T12:24:10.966Z,2.90
2018-08-04T12:26:39.199Z,3.27
2018-08-04T12:29:07.438Z,3.40
2018-08-04T12:31:35.669Z,3.00
2018-08-04T12:34:05.778Z,3.30
2018-08-04T12:36:34.011Z,2.83
2018-08-04T12:39:02.228Z,3.50
2018-08-04T12:41:30.472Z,3.02
2018-08-04T12:43:58.703Z,3.30
2018-08-04T12:46:26.942Z,3.30
2018-08-04T12:48:55.140Z,3.10
2018-08-04T12:51:23.383Z,3.30
2018-08-04T12:53:51.570Z,3.37
2018-08-04T12:56:19.799Z,3.30
2018-08-04T12:58:48.008Z,3.40
2018-08-04T13:01:16.335Z,3.20
2018-08-04T13:03:44.554Z,3.33
2018-08-04T13:06:12.782Z,3.50
2018-08-04T13:08:41.060Z,3.10
2018-08-04T13:11:09.264Z,3.17
2018-08-04T13:13:37.463Z,3.20
2018-08-04T13:16:05.687Z,3.60
2018-08-04T13:18:33.884Z,3.10
2018-08-04T13:21:02.118Z,3.62
2018-08-04T13:23:30.323Z,3.10
2018-08-04T13:25:58.552Z,3.42
2018-08-04T13:28:26.778Z,3.60
2018-08-04T13:30:55.010Z,3.20
2018-08-04T13:33:23.222Z,3.50
2018-08-04T13:35:51.427Z,3.15
2018-08-04T13:38:20.614Z,3.47
2018-08-04T13:40:48.817Z,3.47
2018-08-04T13:43:17.048Z,3.35
2018-08-04T13:45:45.243Z,3.42
2018-08-04T13:48:13.479Z,3.60
2018-08-04T13:50:41.707Z,3.55
2018-08-04T13:53:09.951Z,3.20
2018-08-04T13:55:38.156Z,3.62
2018-08-04T13:58:06.500Z,3.30
2018-08-04T14:00:34.691Z,3.70
2018-08-04T14:03:02.919Z,3.10
2018-08-04T14:05:31.125Z,3.35
2018-08-04T14:07:59.371Z,3.60
2018-08-04T14:10:27.629Z,3.30
2018-08-04T14:12:55.624Z,3.40
2018-08-04T14:15:23.830Z,3.33
2018-08-04T14:17:52.039Z,3.20
2018-08-04T14:20:20.278Z,3.52
2018-08-04T14:22:48.546Z,3.37
2018-08-04T14:25:16.718Z,3.50
2018-08-04T14:27:44.937Z,4.20
2018-08-04T14:30:13.143Z,3.50
2018-08-04T14:32:41.363Z,3.95
2018-08-04T14:35:09.594Z,3.33
2018-08-04T14:37:37.836Z,3.98
2018-08-04T14:40:06.122Z,3.35
2018-08-04T14:42:34.367Z,3.85
2018-08-04T14:45:02.597Z,3.75
2018-08-04T14:47:30.844Z,3.98
2018-08-04T14:49:58.815Z,3.95
2018-08-04T14:52:27.094Z,3.52
2018-08-04T14:54:55.308Z,3.95
2018-08-04T14:57:23.538Z,3.80
2018-08-04T14:59:51.772Z,3.80
2018-08-04T15:02:19.995Z,3.80
2018-08-04T15:04:48.250Z,3.92
2018-08-04T15:07:16.506Z,3.77
2018-08-04T15:09:44.844Z,4.28
2018-08-04T15:12:13.126Z,3.90
2018-08-04T15:14:41.344Z,3.70
2018-08-04T15:17:09.582Z,3.90
2018-08-04T15:19:37.800Z,3.50
2018-08-04T15:22:06.075Z,3.45
2018-08-04T15:24:34.326Z,3.65
2018-08-04T15:27:02.592Z,3.50
2018-08-04T15:29:30.815Z,3.80
2018-08-04T15:31:59.075Z,3.50
2018-08-04T15:34:27.303Z,4.10
2018-08-04T15:36:55.526Z,4.15
2018-08-04T15:39:23.738Z,3.70
2018-08-04T15:41:51.970Z,3.95
2018-08-04T15:44:20.574Z,3.95
2018-08-04T15:46:48.786Z,4.25
2018-08-04T15:49:16.998Z,4.10
2018-08-04T15:51:45.213Z,3.47
2018-08-04T15:54:13.433Z,3.67
2018-08-04T15:56:41.685Z,3.87
2018-08-04T15:59:10.122Z,4.00
2018-08-04T16:01:38.354Z,4.78
2018-08-04T16:04:07.644Z,3.92
2018-08-04T16:06:35.894Z,4.50
2018-08-04T16:09:06.226Z,4.10
2018-08-04T16:11:34.438Z,3.80
2018-08-04T16:14:02.650Z,4.12
2018-08-04T16:16:30.865Z,4.05
2018-08-04T16:18:59.086Z,3.85
2018-08-04T16:21:27.299Z,4.35
2018-08-04T16:23:55.627Z,4.00
2018-08-04T16:26:23.847Z,4.42
2018-08-04T16:28:52.088Z,3.62
2018-08-04T16:31:20.302Z,4.20
2018-08-04T16:33:48.599Z,3.72
2018-08-04T16:36:16.790Z,4.40
2018-08-04T16:38:45.009Z,4.17
2018-08-04T16:41:13.223Z,3.85
2018-08-04T16:43:41.443Z,4.08
2018-08-04T16:46:09.663Z,4.10
2018-08-04T16:48:37.910Z,4.85
2018-08-04T16:51:06.153Z,4.05
2018-08-04T16:53:34.375Z,4.10
2018-08-04T16:56:02.574Z,4.40
2018-08-04T16:58:30.795Z,5.10
2018-08-04T17:00:59.004Z,4.70
2018-08-04T17:03:27.231Z,4.70
2018-08-04T17:05:55.463Z,4.95
2018-08-04T17:08:23.686Z,4.83
2018-08-04T17:10:51.920Z,4.83
2018-08-04T17:13:20.282Z,5.10
2018-08-04T17:15:48.494Z,5.00
2018-08-04T17:18:17.495Z,4.60
2018-08-04T17:20:45.599Z,5.35
2018-08-04T17:23:13.868Z,5.42
2018-08-04T17:25:42.116Z,5.05
2018-08-04T17:28:10.349Z,5.37
2018-08-04T17:30:38.633Z,5.20
2018-08-04T17:33:06.830Z,5.70
2018-08-04T17:35:35.114Z,5.47
2018-08-04T17:38:03.315Z,5.30
2018-08-04T17:40:31.574Z,5.58
2018-08-04T17:42:59.782Z,5.53
2018-08-04T17:45:27.995Z,5.10
2018-08-04T17:47:56.208Z,4.83
2018-08-04T17:50:24.426Z,5.05
2018-08-04T17:52:52.623Z,4.70
2018-08-04T17:55:20.840Z,5.53
2018-08-04T17:57:49.055Z,5.12
2018-08-04T18:00:18.262Z,5.25
2018-08-04T18:02:46.476Z,5.08
2018-08-04T18:05:14.691Z,4.92
2018-08-04T18:07:42.903Z,5.10
2018-08-04T18:10:11.139Z,5.00
2018-08-04T18:12:39.433Z,5.35
2018-08-04T18:15:07.618Z,5.40
2018-08-04T18:17:35.867Z,4.92
2018-08-04T18:20:04.432Z,4.87
2018-08-04T18:22:32.650Z,5.22
2018-08-04T18:25:00.881Z,4.97
2018-08-04T18:27:29.088Z,5.20
2018-08-04T18:29:57.103Z,5.55
2018-08-04T18:32:25.317Z,5.05
2018-08-04T18:34:53.559Z,5.08
2018-08-04T18:37:21.766Z,5.37
2018-08-04T18:39:49.996Z,4.83
2018-08-04T18:42:18.263Z,4.80
2018-08-04T18:44:46.579Z,4.67
2018-08-04T18:47:14.750Z,4.67
2018-08-04T18:49:43.068Z,4.95
2018-08-04T18:52:11.265Z,5.03
2018-08-04T18:54:39.492Z,4.70
2018-08-04T18:57:07.760Z,4.47
2018-08-04T18:59:36.536Z,5.33
2018-08-04T19:02:04.754Z,5.67
2018-08-04T19:04:32.978Z,5.03
2018-08-04T19:07:01.184Z,5.00
2018-08-04T19:09:29.431Z,4.90
2018-08-04T19:11:57.645Z,4.80
2018-08-04T19:14:25.888Z,5.22
2018-08-04T19:16:54.107Z,4.75
2018-08-04T19:19:22.348Z,4.62
2018-08-04T19:21:50.584Z,5.00
2018-08-04T19:24:18.792Z,4.60
2018-08-04T19:26:47.028Z,4.62
2018-08-04T19:29:15.235Z,4.40
2018-08-04T19:31:43.447Z,4.62
2018-08-04T19:34:11.663Z,4.47
2018-08-04T19:36:39.879Z,4.47
2018-08-04T19:39:08.883Z,4.10
2018-08-04T19:41:37.121Z,4.60
2018-08-04T19:44:05.634Z,4.33
2018-08-04T19:46:33.842Z,4.33
2018-08-04T19:49:02.156Z,4.47
2018-08-04T19:51:30.511Z,4.62
2018-08-04T19:53:58.733Z,4.50
2018-08-04T19:56:26.963Z,4.65
2018-08-04T19:58:55.186Z,4.70
2018-08-04T20:01:23.387Z,4.83
2018-08-04T20:03:52.179Z,5.03
2018-08-04T20:06:20.424Z,4.30
2018-08-04T20:08:48.931Z,4.28
2018-08-04T20:11:17.202Z,4.10
2018-08-04T20:13:45.512Z,4.55
2018-08-04T20:16:13.751Z,4.45
2018-08-04T20:18:42.145Z,4.60
2018-08-04T20:21:10.361Z,4.30
2018-08-04T20:23:38.707Z,5.22
2018-08-04T20:26:06.927Z,4.50
2018-08-04T20:28:35.146Z,4.10
2018-08-04T20:31:03.363Z,4.28
2018-08-04T20:33:31.358Z,4.05
2018-08-04T20:35:59.570Z,4.35
2018-08-04T20:38:27.988Z,4.17
2018-08-04T20:40:56.220Z,4.10
2018-08-04T20:43:24.417Z,4.33
2018-08-04T20:45:52.770Z,4.25
2018-08-04T20:48:21.126Z,4.53
2018-08-04T20:50:51.391Z,4.28
2018-08-04T20:53:19.672Z,4.30
2018-08-04T20:55:47.894Z,4.60
2018-08-04T20:58:16.181Z,4.90
2018-08-04T21:00:54.424Z,5.05
2018-08-04T21:03:22.615Z,4.85
2018-08-04T21:05:50.837Z,4.25
2018-08-04T21:08:19.048Z,5.12
2018-08-04T21:10:47.290Z,4.90
2018-08-04T21:13:15.493Z,5.10
2018-08-04T21:15:43.724Z,5.10
2018-08-04T21:18:11.947Z,5.13
2018-08-04T21:20:40.187Z,5.10
2018-08-04T21:23:08.400Z,5.25
2018-08-04T21:25:36.606Z,5.08
2018-08-04T21:28:04.894Z,5.53
2018-08-04T21:30:33.085Z,5.20
2018-08-04T21:33:01.341Z,5.10
2018-08-04T21:35:29.586Z,5.00
2018-08-04T21:37:57.931Z,5.40
2018-08-04T21:40:26.154Z,5.67
2018-08-04T21:42:54.491Z,5.13
2018-08-04T21:45:22.747Z,5.70
2018-08-04T21:47:50.967Z,5.50
2018-08-04T21:50:19.183Z,5.37
2018-08-04T21:52:47.407Z,5.47
2018-08-04T21:55:15.616Z,5.47
2018-08-04T21:57:43.835Z,5.70
2018-08-04T22:00:13.370Z,5.70
2018-08-04T22:02:52.583Z,5.90
2018-08-04T22:05:20.798Z,6.33
2018-08-04T22:08:00.797Z,6.10
2018-08-04T22:10:29.058Z,6.33
2018-08-04T22:12:57.686Z,5.90
2018-08-04T22:15:26.339Z,5.70
2018-08-04T22:17:54.582Z,6.03
2018-08-04T22:20:23.268Z,6.30
2018-08-04T22:22:51.528Z,5.70
2018-08-04T22:25:20.843Z,6.10
2018-08-04T22:27:50.318Z,6.60
2018-08-04T22:30:19.779Z,6.37
2018-08-04T22:32:48.452Z,6.13
2018-08-04T22:35:16.708Z,6.13
2018-08-04T22:37:44.953Z,6.23
2018-08-04T22:40:14.227Z,6.20
2018-08-04T22:42:42.799Z,6.20
2018-08-04T22:46:21.535Z,6.73
2018-08-04T22:48:51.023Z,6.30
2018-08-04T22:51:23.098Z,6.60
2018-08-04T22:53:51.111Z,6.97
2018-08-04T22:56:19.602Z,6.60
2018-08-04T22:58:47.825Z,6.90
2018-08-04T23:01:16.046Z,6.83
2018-08-04T23:06:12.511Z,6.93
2018-08-04T23:08:40.726Z,6.50
2018-08-04T23:11:08.943Z,7.00
2018-08-04T23:13:37.156Z,6.70
2018-08-04T23:16:05.391Z,7.13
2018-08-04T23:18:33.603Z,6.47
2018-08-04T23:21:01.799Z,6.60
2018-08-04T23:23:29.786Z,6.87
2018-08-04T23:25:57.990Z,6.80
2018-08-04T23:28:26.195Z,7.30
2018-08-04T23:30:54.394Z,6.20
2018-08-04T23:33:22.388Z,6.60
2018-08-04T23:35:50.595Z,6.97
2018-08-04T23:38:18.814Z,6.67
2018-08-04T23:40:47.026Z,6.10
2018-08-04T23:43:15.305Z,6.43
2018-08-04T23:45:43.523Z,7.40
2018-08-04T23:48:11.735Z,6.87
2018-08-04T23:50:39.926Z,7.40
2018-08-04T23:53:08.319Z,6.57
2018-08-04T23:55:36.519Z,6.93
2018-08-04T23:58:04.907Z,6.73
